createdAt,value
2018-03-03T00:00:55.046Z,97.97
2018-03-03T00:03:23.408Z,94.93
2018-03-03T00:05:53.856Z,88.27
2018-03-03T00:08:22.954Z,93.63
2018-03-03T00:10:52.139Z,86.00
2018-03-03T00:13:21.246Z,85.63
2018-03-03T00:15:49.534Z,95.90
2018-03-03T00:18:20.593Z,88.33
2018-03-03T00:20:50.827Z,92.80
2018-03-03T00:23:19.977Z,91.50
2018-03-03T00:25:49.954Z,88.60
2018-03-03T00:28:18.364Z,88.47
2018-03-03T00:30:46.737Z,77.80
2018-03-03T00:33:17.707Z,91.00
2018-03-03T00:35:46.908Z,85.13
2018-03-03T00:38:15.290Z,85.93
2018-03-03T00:40:43.670Z,83.10
2018-03-03T00:43:11.987Z,87.30
2018-03-03T00:45:40.366Z,91.93
2018-03-03T00:48:10.312Z,89.57
2018-03-03T00:50:41.297Z,87.63
2018-03-03T00:53:11.569Z,91.37
2018-03-03T00:55:42.307Z,86.07
2018-03-03T00:58:10.629Z,85.77
2018-03-03T01:00:39.686Z,82.60
2018-03-03T01:03:10.569Z,81.20
2018-03-03T01:05:38.921Z,81.93
2018-03-03T01:08:07.328Z,83.40
2018-03-03T01:10:35.635Z,84.73
2018-03-03T01:13:04.031Z,81.80
2018-03-03T01:15:32.516Z,84.67
2018-03-03T01:18:00.962Z,84.93
2018-03-03T01:20:29.268Z,88.77
2018-03-03T01:22:57.590Z,82.73
2018-03-03T01:25:26.729Z,88.23
2018-03-03T01:27:55.257Z,88.03
2018-03-03T01:30:23.557Z,89.27
2018-03-03T01:32:51.884Z,90.40
2018-03-03T01:35:20.359Z,94.47
2018-03-03T01:37:48.658Z,97.17
2018-03-03T01:40:17.023Z,96.20
2018-03-03T01:42:45.324Z,93.30
2018-03-03T01:45:13.710Z,92.30
2018-03-03T01:47:42.068Z,99.30
2018-03-03T01:50:10.473Z,103.67
2018-03-03T01:52:41.506Z,99.93
2018-03-03T01:55:11.556Z,99.97
2018-03-03T01:57:39.938Z,92.20
2018-03-03T02:00:08.246Z,91.80
2018-03-03T02:02:36.658Z,109.57
2018-03-03T02:05:05.740Z,96.07
2018-03-03T02:07:34.795Z,102.47
2018-03-03T02:10:03.208Z,101.13
2018-03-03T02:12:31.528Z,99.97
2018-03-03T02:15:01.644Z,102.60
2018-03-03T02:17:30.031Z,98.30
2018-03-03T02:19:59.955Z,93.13
2018-03-03T02:22:28.339Z,97.80
2018-03-03T02:24:56.846Z,101.67
2018-03-03T02:27:25.342Z,97.20
2018-03-03T02:29:56.782Z,98.03
2018-03-03T02:32:25.392Z,96.30
2018-03-03T02:34:53.766Z,94.40
2018-03-03T02:37:22.224Z,101.80
2018-03-03T02:39:50.601Z,95.10
2018-03-03T02:42:22.319Z,107.77
2018-03-03T02:44:51.416Z,103.47
2018-03-03T02:47:19.778Z,105.93
2018-03-03T02:49:48.275Z,100.40
2018-03-03T02:52:16.757Z,96.77
2018-03-03T02:54:45.115Z,109.97
2018-03-03T02:57:13.411Z,110.60
2018-03-03T02:59:42.047Z,101.40
2018-03-03T03:02:11.120Z,101.43
2018-03-03T03:04:39.466Z,98.93
2018-03-03T03:07:07.786Z,103.90
2018-03-03T03:09:36.063Z,99.47
2018-03-03T03:12:04.399Z,99.70
2018-03-03T03:14:32.715Z,94.63
2018-03-03T03:17:01.805Z,93.37
2018-03-03T03:19:30.125Z,105.43
2018-03-03T03:21:58.482Z,96.87
2018-03-03T03:24:29.785Z,104.00
2018-03-03T03:26:58.140Z,97.70
2018-03-03T03:29:26.493Z,101.10
2018-03-03T03:31:57.516Z,100.17
2018-03-03T03:34:25.897Z,94.33
2018-03-03T03:36:54.200Z,96.97
2018-03-03T03:39:23.275Z,104.83
2018-03-03T03:41:51.601Z,107.43
2018-03-03T03:44:22.082Z,97.50
2018-03-03T03:46:52.815Z,103.67
2018-03-03T03:49:22.113Z,99.57
2018-03-03T03:51:50.590Z,105.13
2018-03-03T03:54:19.817Z,107.63
2018-03-03T03:56:49.019Z,97.50
2018-03-03T03:59:18.417Z,96.20
2018-03-03T04:01:46.751Z,100.73
2018-03-03T04:04:15.167Z,125.43
2018-03-03T04:06:44.531Z,114.43
2018-03-03T04:09:12.841Z,103.40
2018-03-03T04:11:41.196Z,106.87
2018-03-03T04:14:12.289Z,105.77
2018-03-03T04:16:42.483Z,107.50
2018-03-03T04:19:11.757Z,105.60
2018-03-03T04:21:41.782Z,104.80
2018-03-03T04:24:10.153Z,112.47
2018-03-03T04:26:40.214Z,99.70
2018-03-03T04:29:10.426Z,107.90
2018-03-03T04:31:40.409Z,109.20
2018-03-03T04:34:08.741Z,96.80
2018-03-03T04:36:39.531Z,103.37
2018-03-03T04:39:09.749Z,114.90
2018-03-03T04:41:40.747Z,111.00
2018-03-03T04:44:09.221Z,108.43
2018-03-03T04:46:37.493Z,107.37
2018-03-03T04:49:05.975Z,103.60
2018-03-03T04:51:36.752Z,103.90
2018-03-03T04:54:06.806Z,101.50
2018-03-03T04:56:36.891Z,107.83
2018-03-03T05:13:15.548Z,107.13
2018-03-03T05:15:44.459Z,103.20
2018-03-03T05:21:33.075Z,112.77
2018-03-03T05:24:06.976Z,106.20
2018-03-03T05:26:42.845Z,115.53
2018-03-03T05:32:50.574Z,120.57
2018-03-03T05:38:31.395Z,121.03
2018-03-03T05:44:14.321Z,124.87
2018-03-03T05:46:47.934Z,108.60
2018-03-03T05:49:23.630Z,101.07
2018-03-03T05:52:03.805Z,102.60
2018-03-03T05:54:38.117Z,95.80
2018-03-03T06:00:17.258Z,98.40
2018-03-03T06:03:00.430Z,110.60
2018-03-03T06:05:33.173Z,98.80
2018-03-03T06:21:47.338Z,100.53
2018-03-03T06:24:15.887Z,99.47
2018-03-03T06:26:44.199Z,111.00
2018-03-03T06:29:12.871Z,99.40
2018-03-03T06:31:42.172Z,111.97
2018-03-03T06:34:10.527Z,109.63
2018-03-03T06:36:41.580Z,99.83
2018-03-03T06:39:09.958Z,105.37
2018-03-03T06:41:39.293Z,101.27
2018-03-03T06:44:07.628Z,102.20
2018-03-03T06:46:36.004Z,104.57
2018-03-03T06:49:04.384Z,98.00
2018-03-03T06:51:32.700Z,98.00
2018-03-03T06:54:01.860Z,94.60
2018-03-03T06:56:30.442Z,105.50
2018-03-03T06:59:00.570Z,105.20
2018-03-03T07:01:29.148Z,108.10
2018-03-03T07:03:57.838Z,109.13
2018-03-03T07:06:26.944Z,98.20
2018-03-03T07:08:55.497Z,102.43
2018-03-03T07:11:23.863Z,93.37
2018-03-03T07:13:52.180Z,103.07
2018-03-03T07:16:20.539Z,101.37
2018-03-03T07:18:50.652Z,106.30
2018-03-03T07:21:18.996Z,101.93
2018-03-03T07:23:48.099Z,98.77
2018-03-03T07:26:16.401Z,104.13
2018-03-03T07:28:44.740Z,108.53
2018-03-03T07:31:13.065Z,106.43
2018-03-03T07:33:41.405Z,115.27
2018-03-03T07:36:10.485Z,111.73
2018-03-03T07:38:40.549Z,95.93
2018-03-03T07:41:09.128Z,99.40
2018-03-03T07:43:37.458Z,116.07
2018-03-03T07:46:06.000Z,113.90
2018-03-03T07:48:38.472Z,104.10
2018-03-03T07:51:08.718Z,106.40
2018-03-03T07:53:37.068Z,111.70
2018-03-03T07:56:05.450Z,117.97
2018-03-03T07:58:45.408Z,112.17
2018-03-03T08:01:14.880Z,105.70
2018-03-03T08:03:43.307Z,111.57
2018-03-03T08:06:13.384Z,114.00
2018-03-03T08:08:42.464Z,111.63
2018-03-03T08:11:10.771Z,115.73
2018-03-03T08:13:39.166Z,107.87
2018-03-03T08:16:10.914Z,103.40
2018-03-03T08:18:39.320Z,87.40
2018-03-03T08:21:09.405Z,101.83
2018-03-03T08:23:37.859Z,112.33
2018-03-03T08:26:06.245Z,105.73
2018-03-03T08:28:36.816Z,106.17
2018-03-03T08:31:05.281Z,105.07
2018-03-03T08:33:34.483Z,104.63
2018-03-03T08:36:04.895Z,104.87
2018-03-03T08:38:35.551Z,106.27
2018-03-03T08:41:04.099Z,116.37
2018-03-03T08:43:32.759Z,117.50
2018-03-03T08:46:03.748Z,108.83
2018-03-03T08:48:32.124Z,102.53
2018-03-03T08:51:00.544Z,103.10
2018-03-03T08:53:29.839Z,104.03
2018-03-03T08:55:58.219Z,112.27
2018-03-03T08:58:26.535Z,109.63
2018-03-03T09:00:54.885Z,105.93
2018-03-03T09:03:23.315Z,105.67
2018-03-03T09:05:51.786Z,111.00
2018-03-03T09:08:22.316Z,91.77
2018-03-03T09:10:52.993Z,104.93
2018-03-03T09:13:21.335Z,107.77
2018-03-03T09:15:49.711Z,103.90
2018-03-03T09:18:18.850Z,111.77
2018-03-03T09:20:47.210Z,106.83
2018-03-03T09:23:15.659Z,109.03
2018-03-03T09:25:46.211Z,111.13
2018-03-03T09:28:14.574Z,111.97
2018-03-03T09:30:42.897Z,117.73
2018-03-03T09:33:11.513Z,111.80
2018-03-03T09:35:43.367Z,108.23
2018-03-03T09:38:14.811Z,108.20
2018-03-03T09:40:44.210Z,107.33
2018-03-03T09:43:14.356Z,109.27
2018-03-03T09:45:42.898Z,110.13
2018-03-03T09:48:11.425Z,121.13
2018-03-03T09:50:41.535Z,106.87
2018-03-03T09:53:11.154Z,109.63
2018-03-03T09:55:39.482Z,108.30
2018-03-03T09:58:07.865Z,107.37
2018-03-03T10:00:36.206Z,105.80
2018-03-03T10:03:06.613Z,106.27
2018-03-03T10:05:39.952Z,128.50
2018-03-03T10:08:10.245Z,115.37
2018-03-03T10:10:38.726Z,108.27
2018-03-03T10:13:08.678Z,107.30
2018-03-03T10:15:37.107Z,107.33
2018-03-03T10:18:07.641Z,113.83
2018-03-03T10:20:41.119Z,101.87
2018-03-03T10:23:09.551Z,115.97
2018-03-03T10:25:40.518Z,101.87
2018-03-03T10:28:09.637Z,114.93
2018-03-03T10:30:38.969Z,102.97
2018-03-03T10:33:07.473Z,105.90
2018-03-03T10:35:35.941Z,106.90
2018-03-03T10:38:05.658Z,113.60
2018-03-03T10:40:35.460Z,109.20
2018-03-03T10:43:06.555Z,105.90
2018-03-03T10:45:37.995Z,106.07
2018-03-03T10:48:07.474Z,110.20
2018-03-03T10:50:39.919Z,107.53
2018-03-03T10:53:08.424Z,113.37
2018-03-03T10:55:36.975Z,103.30
2018-03-03T10:58:06.031Z,97.47
2018-03-03T11:00:37.866Z,109.00
2018-03-03T11:03:06.312Z,108.37
2018-03-03T11:05:35.602Z,109.30
2018-03-03T11:08:05.664Z,96.10
2018-03-03T11:10:34.065Z,92.27
2018-03-03T11:13:02.414Z,97.67
2018-03-03T11:15:30.813Z,93.67
2018-03-03T11:17:59.950Z,98.73
2018-03-03T11:20:28.244Z,100.70
2018-03-03T11:22:56.613Z,97.50
2018-03-03T11:25:26.685Z,96.10
2018-03-03T11:27:55.839Z,95.37
2018-03-03T11:30:24.230Z,100.07
2018-03-03T11:32:55.230Z,96.30
2018-03-03T11:35:23.531Z,95.30
2018-03-03T11:37:51.893Z,99.53
2018-03-03T11:40:20.267Z,92.27
2018-03-03T11:42:50.489Z,92.80
2018-03-03T11:45:19.910Z,99.50
2018-03-03T11:47:50.072Z,96.87
2018-03-03T11:50:18.534Z,105.10
2018-03-03T11:52:46.844Z,99.10
2018-03-03T11:55:17.117Z,102.87
2018-03-03T11:57:48.000Z,82.33
2018-03-03T12:00:16.350Z,92.50
2018-03-03T12:02:45.416Z,101.00
2018-03-03T12:05:13.828Z,91.90
2018-03-03T12:07:42.392Z,87.80
2018-03-03T12:10:10.717Z,87.10
2018-03-03T12:12:39.092Z,91.30
2018-03-03T12:15:07.469Z,99.87
2018-03-03T12:17:36.875Z,98.10
2018-03-03T12:20:05.219Z,85.47
2018-03-03T12:22:33.570Z,91.13
2018-03-03T12:25:04.493Z,103.17
2018-03-03T12:27:33.665Z,87.00
2018-03-03T12:30:01.992Z,99.07
2018-03-03T12:32:30.438Z,91.43
2018-03-03T12:34:59.040Z,87.57
2018-03-03T12:37:27.382Z,89.87
2018-03-03T12:39:55.712Z,90.13
2018-03-03T12:42:24.009Z,82.90
2018-03-03T12:44:52.394Z,84.37
2018-03-03T12:47:20.716Z,80.80
2018-03-03T12:49:49.147Z,90.83
2018-03-03T12:52:17.607Z,90.40
2018-03-03T12:54:45.961Z,88.00
2018-03-03T12:57:14.351Z,95.10
2018-03-03T12:59:42.679Z,97.20
2018-03-03T13:02:11.002Z,86.93
2018-03-03T13:04:39.620Z,97.73
2018-03-03T13:07:08.099Z,91.30
2018-03-03T13:09:36.438Z,80.70
2018-03-03T13:12:09.012Z,88.67
2018-03-03T13:14:37.386Z,98.80
2018-03-03T13:17:05.791Z,102.10
2018-03-03T13:19:34.254Z,81.00
2018-03-03T13:22:02.607Z,105.40
2018-03-03T13:24:30.939Z,98.07
2018-03-03T13:26:59.244Z,78.80
2018-03-03T13:29:27.596Z,83.27
2018-03-03T13:31:55.977Z,79.23
2018-03-03T13:34:24.336Z,82.13
2018-03-03T13:36:55.431Z,75.50
2018-03-03T13:39:23.763Z,67.33
2018-03-03T13:41:52.082Z,70.07
2018-03-03T13:44:21.292Z,74.80
2018-03-03T13:46:49.726Z,72.10
2018-03-03T13:49:20.749Z,70.37
2018-03-03T13:51:49.208Z,67.63
2018-03-03T13:54:18.311Z,72.10
2018-03-03T13:56:46.764Z,70.07
2018-03-03T13:59:15.122Z,72.00
2018-03-03T14:01:43.510Z,68.30
2018-03-03T14:04:11.910Z,65.93
2018-03-03T14:06:42.721Z,70.80
2018-03-03T14:09:15.608Z,59.50
2018-03-03T14:11:47.143Z,62.07
2018-03-03T14:14:15.545Z,65.37
2018-03-03T14:16:45.797Z,65.87
2018-03-03T14:19:19.475Z,64.70
2018-03-03T14:21:49.926Z,65.47
2018-03-03T14:24:18.238Z,61.90
2018-03-03T14:26:46.609Z,59.20
2018-03-03T14:29:14.987Z,59.03
2018-03-03T14:31:45.248Z,63.37
2018-03-03T14:34:15.919Z,59.10
2018-03-03T14:36:44.299Z,60.57
2018-03-03T14:39:12.773Z,67.13
2018-03-03T14:41:41.183Z,65.80
2018-03-03T14:44:09.535Z,63.23
2018-03-03T14:46:37.978Z,62.73
2018-03-03T14:49:08.911Z,60.53
2018-03-03T14:51:39.306Z,66.27
2018-03-03T14:54:11.716Z,58.73
2018-03-03T14:56:41.804Z,61.60
2018-03-03T14:59:10.217Z,63.00
2018-03-03T15:01:38.528Z,56.00
2018-03-03T15:04:08.551Z,60.03
2018-03-03T15:06:36.927Z,56.20
2018-03-03T15:09:05.273Z,53.33
2018-03-03T15:11:35.341Z,62.63
2018-03-03T15:14:06.445Z,63.13
2018-03-03T15:16:36.722Z,63.53
2018-03-03T15:19:06.882Z,60.63
2018-03-03T15:21:35.219Z,59.13
2018-03-03T15:24:05.243Z,65.53
2018-03-03T15:26:33.633Z,58.63
2018-03-03T15:29:02.013Z,57.53
2018-03-03T15:31:30.355Z,54.33
2018-03-03T15:34:00.523Z,57.70
2018-03-03T15:36:30.615Z,56.23
2018-03-03T15:39:01.883Z,58.47
2018-03-03T15:41:30.396Z,51.30
2018-03-03T15:44:00.534Z,55.33
2018-03-03T15:46:28.949Z,55.10
2018-03-03T15:48:57.313Z,57.77
2018-03-03T15:51:28.448Z,58.27
2018-03-03T15:53:56.801Z,59.60
2018-03-03T15:56:25.152Z,62.00
2018-03-03T15:58:55.172Z,61.53
2018-03-03T16:01:24.836Z,63.13
2018-03-03T16:03:54.916Z,58.80
2018-03-03T16:06:24.334Z,58.87
2018-03-03T16:08:53.459Z,71.87
2018-03-03T16:11:21.917Z,58.00
2018-03-03T16:13:50.240Z,60.97
2018-03-03T16:16:18.754Z,61.20
2018-03-03T16:18:47.037Z,55.87
2018-03-03T16:21:15.478Z,56.93
2018-03-03T16:23:44.561Z,56.20
2018-03-03T16:26:12.862Z,60.57
2018-03-03T16:28:41.268Z,67.23
2018-03-03T16:31:11.677Z,61.20
2018-03-03T16:33:42.263Z,58.60
2018-03-03T16:38:44.783Z,61.03
2018-03-03T16:41:14.996Z,63.10
2018-03-03T16:43:44.301Z,53.07
2018-03-03T16:46:13.652Z,69.23
2018-03-03T16:48:44.110Z,62.97
2018-03-03T16:51:12.884Z,66.73
2018-03-03T16:53:41.257Z,65.90
2018-03-03T16:56:09.714Z,69.27
2018-03-03T16:58:40.170Z,64.23
2018-03-03T17:01:10.878Z,61.83
2018-03-03T17:03:39.192Z,65.00
2018-03-03T17:06:08.239Z,65.67
2018-03-03T17:08:36.624Z,69.07
2018-03-03T17:11:04.903Z,75.20
2018-03-03T17:13:33.346Z,71.40
2018-03-03T17:16:03.780Z,64.90
2018-03-03T17:18:32.431Z,63.97
2018-03-03T17:21:00.794Z,60.70
2018-03-03T17:23:29.117Z,61.83
2018-03-03T17:25:57.472Z,55.77
2018-03-03T17:28:25.831Z,63.93
2018-03-03T17:30:54.215Z,84.40
2018-03-03T17:33:22.588Z,75.67
2018-03-03T17:35:51.000Z,69.50
2018-03-03T17:38:19.359Z,62.90
2018-03-03T17:40:49.493Z,61.03
2018-03-03T17:43:17.863Z,65.43
2018-03-03T17:45:49.815Z,65.00
2018-03-03T17:48:21.100Z,61.87
2018-03-03T17:50:49.481Z,64.30
2018-03-03T17:53:17.934Z,63.07
2018-03-03T17:55:46.416Z,61.13
2018-03-03T17:58:15.182Z,62.20
2018-03-03T18:00:43.676Z,68.60
2018-03-03T18:03:12.345Z,62.17
2018-03-03T18:05:40.805Z,71.63
2018-03-03T18:08:09.253Z,63.37
2018-03-03T18:10:38.110Z,72.40
2018-03-03T18:13:09.102Z,66.27
2018-03-03T18:15:37.650Z,64.83
2018-03-03T18:18:06.098Z,65.47
2018-03-03T18:20:36.745Z,60.93
2018-03-03T18:23:07.686Z,68.73
2018-03-03T18:25:37.036Z,69.97
2018-03-03T18:28:06.133Z,70.13
2018-03-03T18:30:40.384Z,72.00
2018-03-03T18:33:09.553Z,71.70
2018-03-03T18:35:40.134Z,66.03
2018-03-03T18:38:11.055Z,71.30
2018-03-03T18:40:40.236Z,75.63
2018-03-03T18:43:09.531Z,76.63
2018-03-03T18:45:38.948Z,71.73
2018-03-03T18:48:09.199Z,84.93
2018-03-03T18:50:40.116Z,83.60
2018-03-03T18:53:09.309Z,78.80
2018-03-03T18:55:37.671Z,83.60
2018-03-03T18:58:06.761Z,77.23
2018-03-03T19:00:37.104Z,72.20
2018-03-03T19:03:10.687Z,73.30
2018-03-03T19:05:41.203Z,82.07
2018-03-03T19:08:10.540Z,82.37
2018-03-03T19:10:39.020Z,74.27
2018-03-03T19:13:07.706Z,69.20
2018-03-03T19:15:36.168Z,73.43
2018-03-03T19:18:05.317Z,69.93
2018-03-03T19:20:34.496Z,72.20
2018-03-03T19:23:02.912Z,72.43
2018-03-03T19:25:32.162Z,76.10
2018-03-03T19:28:00.543Z,80.70
2018-03-03T19:30:29.753Z,84.57
2018-03-03T19:33:00.696Z,87.27
2018-03-03T19:35:30.589Z,95.00
2018-03-03T19:37:59.690Z,97.67
2018-03-03T19:40:28.107Z,93.77
2018-03-03T19:42:56.787Z,91.23
2018-03-03T19:45:27.409Z,88.60
2018-03-03T19:47:55.898Z,89.70
2018-03-03T19:50:24.493Z,99.30
2018-03-03T19:52:53.785Z,92.20
2018-03-03T19:55:22.506Z,102.23
2018-03-03T19:57:50.996Z,94.10
2018-03-03T20:00:20.260Z,92.00
2018-03-03T20:02:54.647Z,98.63
2018-03-03T20:05:23.135Z,89.90
2018-03-03T20:07:52.501Z,100.90
2018-03-03T20:10:23.061Z,102.90
2018-03-03T20:12:53.909Z,104.77
2018-03-03T20:15:22.472Z,103.93
2018-03-03T20:17:53.617Z,101.37
2018-03-03T20:20:23.797Z,102.43
2018-03-03T20:22:52.249Z,101.70
2018-03-03T20:25:20.667Z,106.43
2018-03-03T20:27:49.077Z,97.60
2018-03-03T20:30:17.798Z,87.57
2018-03-03T20:32:46.453Z,97.60
2018-03-03T20:35:15.655Z,88.10
2018-03-03T20:37:44.096Z,90.90
2018-03-03T20:40:12.701Z,94.60
2018-03-03T20:42:44.351Z,88.03
2018-03-03T20:45:13.571Z,89.87
2018-03-03T20:47:42.062Z,78.37
2018-03-03T20:50:12.471Z,79.10
2018-03-03T20:52:41.669Z,74.37
2018-03-03T20:55:13.345Z,79.57
2018-03-03T20:57:44.394Z,89.37
2018-03-03T21:00:12.817Z,78.07
2018-03-03T21:02:41.309Z,79.13
2018-03-03T21:05:10.633Z,86.10
2018-03-03T21:07:39.041Z,75.40
2018-03-03T21:10:09.177Z,79.57
2018-03-03T21:12:43.354Z,81.00
2018-03-03T21:15:11.584Z,83.27
2018-03-03T21:17:39.973Z,92.77
2018-03-03T21:20:08.290Z,82.63
2018-03-03T21:22:36.668Z,83.50
2018-03-03T21:25:05.912Z,85.23
2018-03-03T21:27:35.962Z,86.10
2018-03-03T21:30:06.095Z,76.33
2018-03-03T21:32:35.546Z,76.63
2018-03-03T21:35:04.644Z,83.37
2018-03-03T21:37:33.130Z,87.47
2018-03-03T21:40:01.439Z,82.40
2018-03-03T21:42:29.945Z,92.73
2018-03-03T21:44:58.415Z,80.50
2018-03-03T21:47:27.474Z,75.90
2018-03-03T21:49:57.569Z,74.30
2018-03-03T21:52:27.561Z,76.27
2018-03-03T21:54:55.989Z,76.37
2018-03-03T21:57:25.205Z,78.30
2018-03-03T21:59:53.601Z,75.87
2018-03-03T22:02:21.982Z,86.07
2018-03-03T22:04:51.897Z,81.23
2018-03-03T22:07:20.333Z,76.57
2018-03-03T22:09:50.443Z,84.87
2018-03-03T22:12:19.889Z,79.80
2018-03-03T22:14:48.256Z,85.10
2018-03-03T22:17:18.354Z,87.40
2018-03-03T22:19:47.491Z,78.33
2018-03-03T22:22:16.025Z,86.90
2018-03-03T22:24:46.041Z,77.10
2018-03-03T22:27:14.428Z,83.10
2018-03-03T22:29:42.832Z,76.93
2018-03-03T22:32:11.953Z,82.33
2018-03-03T22:34:40.415Z,78.30
2018-03-03T22:37:08.858Z,87.80
2018-03-03T22:39:37.202Z,88.60
2018-03-03T22:42:08.299Z,83.97
2018-03-03T22:44:36.841Z,79.00
2018-03-03T22:47:05.195Z,83.23
2018-03-03T22:49:33.502Z,79.60
2018-03-03T22:52:02.703Z,83.73
2018-03-03T22:54:31.018Z,81.97
2018-03-03T22:56:59.463Z,73.10
2018-03-03T22:59:29.522Z,79.37
2018-03-03T23:02:00.628Z,79.60
2018-03-03T23:04:29.819Z,84.70
2018-03-03T23:07:00.318Z,79.30
2018-03-03T23:09:30.370Z,79.47
2018-03-03T23:11:59.472Z,81.10
2018-03-03T23:14:28.498Z,75.23
2018-03-03T23:16:56.839Z,82.97
2018-03-03T23:19:26.898Z,79.83
2018-03-03T23:21:55.298Z,82.50
2018-03-03T23:24:24.647Z,88.00
2018-03-03T23:26:52.967Z,89.47
2018-03-03T23:29:24.036Z,90.07
2018-03-03T23:31:54.270Z,74.07
2018-03-03T23:34:22.758Z,87.07
2018-03-03T23:36:51.068Z,77.70
2018-03-03T23:39:19.548Z,80.50
2018-03-03T23:41:48.651Z,82.80
2018-03-03T23:44:18.746Z,72.20
2018-03-03T23:46:47.169Z,78.10
2018-03-03T23:49:15.944Z,78.60
2018-03-03T23:51:45.041Z,78.73
2018-03-03T23:54:13.371Z,78.30
2018-03-03T23:56:44.461Z,81.80
2018-03-03T23:59:12.936Z,80.50
